Time;durP1;ratioP1;P1;durP2;ratioP2;P2;SDS_P1;SDS_P2;PMS_P1;PMS_P2;Temp;Humidity;BMP_temperature;BMP_pressure;BME280_temperature;BME280_humidity;BME280_pressure;Samples;Min_cycle;Max_cycle;Signal;HPM_P1;HPM_P2
2021/12/12 00:00:30;;;;;;;6.00;1.33;;;22.50;99.90;;;;;;5136611;27;20424;-69
2021/12/12 00:03:02;;;;;;;8.55;1.33;;;22.80;99.90;;;;;;5136198;27;20035;-70
2021/12/12 00:05:43;;;;;;;6.10;1.30;;;23.00;99.90;;;;;;5135328;27;20027;-71
2021/12/12 00:08:11;;;;;;;5.28;1.17;;;22.70;99.90;;;;;;5134841;27;20034;-69
2021/12/12 00:10:42;;;;;;;3.33;1.00;;;22.60;99.90;;;;;;5134879;27;20031;-70
2021/12/12 00:13:26;;;;;;;7.05;1.50;;;22.90;99.90;;;;;;5136353;27;20383;-72
2021/12/12 00:15:53;;;;;;;6.70;1.75;;;22.80;99.90;;;;;;5136764;27;20026;-72
2021/12/12 00:18:21;;;;;;;5.18;0.95;;;23.30;99.90;;;;;;5136351;27;20071;-70
2021/12/12 00:20:53;;;;;;;5.80;1.35;;;23.50;99.90;;;;;;5136385;27;20023;-71
2021/12/12 00:23:21;;;;;;;4.50;1.17;;;23.50;99.90;;;;;;5136198;27;20031;-71
2021/12/12 00:25:52;;;;;;;5.05;1.10;;;23.10;99.90;;;;;;5136019;27;20027;-70
2021/12/12 00:28:21;;;;;;;5.45;1.05;;;23.40;99.90;;;;;;5134287;27;20027;-69
2021/12/12 00:30:50;;;;;;;4.82;1.38;;;23.60;99.90;;;;;;5135690;27;20102;-70
2021/12/12 00:33:18;;;;;;;5.97;0.97;;;23.30;99.90;;;;;;5136028;27;20102;-69
2021/12/12 00:35:46;;;;;;;6.95;1.38;;;23.50;99.90;;;;;;5136058;27;20042;-69
2021/12/12 00:38:17;;;;;;;4.80;1.25;;;23.50;99.90;;;;;;5135923;27;20041;-70
2021/12/12 00:40:48;;;;;;;6.43;1.35;;;23.70;99.90;;;;;;5134351;27;20118;-69
2021/12/12 00:43:23;;;;;;;5.25;1.20;;;24.20;99.90;;;;;;5135660;27;20019;-71
2021/12/12 00:45:52;;;;;;;4.53;1.13;;;24.00;99.90;;;;;;5134200;27;20032;-71
2021/12/12 00:48:19;;;;;;;4.40;1.25;;;;;;;;;;5135246;27;20023;-71
2021/12/12 00:50:47;;;;;;;6.57;1.17;;;24.60;99.90;;;;;;5133969;27;20023;-72
2021/12/12 00:53:15;;;;;;;7.53;1.65;;;25.10;99.90;;;;;;5135289;27;20023;-71
2021/12/12 00:55:44;;;;;;;6.45;1.40;;;25.40;99.90;;;;;;5135439;27;20027;-72
2021/12/12 00:58:15;;;;;;;5.90;1.33;;;25.30;99.90;;;;;;5134855;27;20026;-74
2021/12/12 01:00:49;;;;;;;3.08;0.85;;;25.10;99.90;;;;;;5135410;27;20353;-73
2021/12/12 01:03:22;;;;;;;4.55;1.17;;;24.70;99.90;;;;;;5135158;27;20047;-73
2021/12/12 01:05:52;;;;;;;5.45;1.52;;;24.80;99.90;;;;;;5134796;27;20370;-76
2021/12/12 01:08:19;;;;;;;7.05;1.50;;;24.80;99.90;;;;;;5134107;27;20027;-75
2021/12/12 01:10:51;;;;;;;6.47;1.40;;;25.00;99.90;;;;;;5135704;27;20083;-75
2021/12/12 01:13:20;;;;;;;5.00;1.20;;;25.00;99.90;;;;;;5135810;27;20046;-75
2021/12/12 01:15:52;;;;;;;5.50;1.42;;;25.00;99.90;;;;;;5134338;27;20019;-76
2021/12/12 01:18:29;;;;;;;4.32;0.95;;;24.90;99.90;;;;;;5135561;27;20023;-76
2021/12/12 01:21:10;;;;;;;4.85;1.00;;;24.70;99.90;;;;;;5134090;27;20027;-75
2021/12/12 01:23:49;;;;;;;4.50;1.00;;;24.60;99.90;;;;;;5135315;27;20464;-75
2021/12/12 01:26:18;;;;;;;4.93;1.30;;;24.20;99.90;;;;;;5135723;27;20020;-75
2021/12/12 01:28:49;;;;;;;8.25;2.10;;;24.00;99.90;;;;;;5134927;27;20383;-74
2021/12/12 01:31:24;;;;;;;4.38;1.45;;;23.90;99.90;;;;;;5133636;27;20110;-75
2021/12/12 01:34:08;;;;;;;7.57;2.08;;;24.10;99.90;;;;;;5134172;27;20375;-75
2021/12/12 01:36:52;;;;;;;7.45;1.23;;;23.60;99.90;;;;;;5135366;27;20020;-75
2021/12/12 01:39:24;;;;;;;4.50;1.20;;;23.70;99.90;;;;;;5135051;27;20475;-74
2021/12/12 01:42:04;;;;;;;5.53;1.63;;;24.20;99.90;;;;;;5135533;27;20023;-76
2021/12/12 01:44:34;;;;;;;6.68;1.30;;;25.00;99.90;;;;;;5135288;27;20023;-76
2021/12/12 01:47:12;;;;;;;7.90;1.88;;;25.50;99.90;;;;;;5135092;27;20031;-76
2021/12/12 01:49:45;;;;;;;3.50;1.45;;;26.10;99.90;;;;;;5133484;27;20429;-76
2021/12/12 01:52:16;;;;;;;7.28;1.40;;;26.50;99.90;;;;;;5135404;27;20015;-76
2021/12/12 01:54:48;;;;;;;5.72;1.33;;;26.40;99.90;;;;;;5135278;27;20130;-77
2021/12/12 01:57:26;;;;;;;5.60;1.33;;;25.90;99.90;;;;;;5134184;27;20118;-77
2021/12/12 01:59:55;;;;;;;6.65;1.50;;;26.50;99.90;;;;;;5133681;27;20106;-77
2021/12/12 02:02:32;;;;;;;6.60;1.73;;;26.30;99.90;;;;;;5133326;27;20023;-77
2021/12/12 02:05:10;;;;;;;5.90;1.15;;;26.20;99.90;;;;;;5134012;27;20024;-76
2021/12/12 02:07:43;;;;;;;4.15;1.30;;;26.10;99.90;;;;;;5135464;28;20360;-76
2021/12/12 02:10:26;;;;;;;5.80;1.10;;;26.10;99.90;;;;;;5136875;27;20026;-76
2021/12/12 02:12:54;;;;;;;5.75;1.60;;;25.80;99.90;;;;;;5140768;27;20019;-77
2021/12/12 02:15:22;;;;;;;5.60;1.42;;;25.90;99.90;;;;;;5141195;27;20486;-77
2021/12/12 02:17:51;;;;;;;4.10;1.23;;;25.60;99.90;;;;;;5140799;27;20049;-77
2021/12/12 02:20:37;;;;;;;4.88;1.00;;;25.70;99.90;;;;;;5140837;27;20162;-77
2021/12/12 02:23:17;;;;;;;5.03;1.02;;;26.40;99.90;;;;;;5140766;27;20031;-76
2021/12/12 02:37:08;;;;;;;6.00;1.85;;;26.30;99.90;;;;;;5142128;27;20058;-76
2021/12/12 02:39:37;;;;;;;5.27;1.17;;;26.30;99.90;;;;;;5141600;27;20065;-77
2021/12/12 02:42:10;;;;;;;4.05;1.05;;;26.70;99.90;;;;;;5141921;27;20060;-77
2021/12/12 02:44:40;;;;;;;6.03;1.95;;;26.90;99.90;;;;;;5140531;27;20487;-76
2021/12/12 02:47:14;;;;;;;4.70;1.10;;;26.50;99.90;;;;;;5140413;27;20019;-77
2021/12/12 02:52:29;;;;;;;3.17;1.00;;;25.90;99.90;;;;;;5141893;27;20054;-77
2021/12/12 02:55:03;;;;;;;5.50;1.30;;;26.60;99.90;;;;;;5142175;27;20027;-78
2021/12/12 02:57:30;;;;;;;4.50;1.05;;;25.80;99.90;;;;;;5140594;27;20027;-78
2021/12/12 02:59:58;;;;;;;4.00;1.10;;;25.50;99.90;;;;;;5141847;27;20015;-77
2021/12/12 03:02:29;;;;;;;5.45;1.20;;;25.30;99.90;;;;;;5140736;27;20023;-77
2021/12/12 03:04:59;;;;;;;6.93;1.30;;;25.70;99.90;;;;;;5142011;27;20027;-78
2021/12/12 03:07:28;;;;;;;5.00;1.63;;;25.80;99.90;;;;;;5141101;27;20019;-78
2021/12/12 03:09:57;;;;;;;5.97;1.35;;;25.90;99.90;;;;;;5141161;27;20115;-77
2021/12/12 03:12:30;;;;;;;6.57;1.42;;;25.40;99.90;;;;;;5142599;27;20452;-78
2021/12/12 03:15:10;;;;;;;5.00;1.23;;;25.90;99.90;;;;;;5140536;27;20022;-77
2021/12/12 03:17:39;;;;;;;6.20;1.00;;;26.00;99.90;;;;;;5141932;27;20019;-78
2021/12/12 03:20:24;;;;;;;6.45;1.38;;;25.80;99.90;;;;;;5141652;27;20054;-78
2021/12/12 03:23:01;;;;;;;6.15;1.10;;;25.70;99.90;;;;;;5139435;27;20023;-78
2021/12/12 03:25:33;;;;;;;7.85;1.50;;;25.80;99.90;;;;;;5138677;27;20022;-79
2021/12/12 03:28:00;;;;;;;7.15;1.63;;;25.90;99.90;;;;;;5137286;27;20031;-78
2021/12/12 03:30:28;;;;;;;5.00;1.45;;;26.20;99.90;;;;;;5136933;27;20022;-77
2021/12/12 03:32:56;;;;;;;6.68;1.25;;;26.40;99.90;;;;;;5137395;27;20026;-78
2021/12/12 03:35:23;;;;;;;5.82;1.42;;;26.50;99.90;;;;;;5136014;27;20019;-78
2021/12/12 03:37:51;;;;;;;4.97;1.30;;;27.00;99.90;;;;;;5138680;27;20027;-77
2021/12/12 03:40:29;;;;;;;5.22;1.20;;;27.10;99.90;;;;;;5136896;27;20030;-78
2021/12/12 03:43:00;;;;;;;6.25;1.30;;;27.10;99.60;;;;;;5137189;27;20043;-77
2021/12/12 03:45:30;;;;;;;4.22;1.30;;;26.70;99.90;;;;;;5138690;27;20106;-77
2021/12/12 03:48:06;;;;;;;10.57;1.35;;;26.70;99.90;;;;;;5136800;27;20068;-79
2021/12/12 03:50:37;;;;;;;4.05;1.55;;;26.70;99.90;;;;;;5136599;27;20027;-80
2021/12/12 03:53:06;;;;;;;5.15;1.55;;;27.10;99.90;;;;;;5138122;27;20055;-76
2021/12/12 03:55:34;;;;;;;8.05;1.77;;;26.90;99.90;;;;;;5138018;27;20027;-78
2021/12/12 03:58:03;;;;;;;6.95;1.30;;;27.00;99.90;;;;;;5137737;27;20033;-78
2021/12/12 04:00:54;;;;;;;4.75;1.60;;;26.20;99.90;;;;;;5136766;27;20035;-78
2021/12/12 04:03:22;;;;;;;5.57;1.77;;;25.40;99.90;;;;;;5137642;27;20118;-79
2021/12/12 04:05:53;;;;;;;6.88;1.73;;;25.50;99.90;;;;;;5137419;27;20027;-78
2021/12/12 04:08:30;;;;;;;6.95;1.42;;;25.00;99.90;;;;;;5138464;27;20030;-77
2021/12/12 04:10:58;;;;;;;7.38;1.40;;;25.00;99.90;;;;;;5137843;27;20020;-80
2021/12/12 04:13:25;;;;;;;6.47;1.52;;;25.70;99.90;;;;;;5136520;27;20475;-79
2021/12/12 04:15:54;;;;;;;8.65;1.80;;;25.00;99.90;;;;;;5137133;27;20019;-81
2021/12/12 04:18:27;;;;;;;4.75;1.30;;;24.70;99.90;;;;;;5138108;27;20019;-81
2021/12/12 04:20:55;;;;;;;7.47;1.38;;;25.10;99.90;;;;;;5136751;27;20019;-80
2021/12/12 04:23:26;;;;;;;7.22;1.70;;;25.90;99.90;;;;;;5137786;27;20023;-79
2021/12/12 04:26:07;;;;;;;6.43;1.27;;;25.90;99.90;;;;;;5136294;27;20024;-81
2021/12/12 04:28:34;;;;;;;5.22;1.45;;;25.70;99.90;;;;;;5136219;27;20444;-79
2021/12/12 04:31:01;;;;;;;6.97;1.50;;;26.10;99.90;;;;;;5136094;27;20083;-79
2021/12/12 04:33:29;;;;;;;6.68;1.63;;;25.80;99.90;;;;;;5137094;27;20062;-79
2021/12/12 04:35:56;;;;;;;7.97;1.88;;;25.30;99.90;;;;;;5136731;27;20139;-79
2021/12/12 04:38:25;;;;;;;5.25;1.25;;;24.80;99.90;;;;;;5137684;27;20031;-79
2021/12/12 04:40:52;;;;;;;8.10;2.22;;;24.90;99.90;;;;;;5137229;27;20038;-79
2021/12/12 04:43:19;;;;;;;7.15;1.38;;;25.60;99.90;;;;;;5136976;27;20504;-76
2021/12/12 04:46:03;;;;;;;7.20;1.75;;;26.10;99.90;;;;;;5135303;27;20471;-78
2021/12/12 04:51:25;;;;;;;6.57;1.60;;;25.00;99.90;;;;;;5136815;27;20522;-77
2021/12/12 04:54:18;;;;;;;10.07;1.63;;;24.50;99.90;;;;;;5136795;27;20019;-77
2021/12/12 04:57:07;;;;;;;6.55;2.10;;;24.30;99.90;;;;;;5135681;27;20076;-77
2021/12/12 04:59:53;;;;;;;4.55;1.58;;;24.00;99.90;;;;;;5137388;27;20479;-77
2021/12/12 05:02:24;;;;;;;9.25;1.85;;;24.00;99.90;;;;;;5136032;27;20034;-79
2021/12/12 05:05:26;;;;;;;9.10;1.80;;;23.90;99.90;;;;;;5135895;27;20084;-77
2021/12/12 05:08:09;;;;;;;7.28;2.00;;;24.00;99.90;;;;;;5136447;27;20072;-75
2021/12/12 05:10:54;;;;;;;8.75;1.88;;;24.40;99.90;;;;;;5134739;27;20087;-75
2021/12/12 05:13:38;;;;;;;8.60;2.00;;;23.90;99.90;;;;;;5136340;27;20011;-74
2021/12/12 05:16:17;;;;;;;9.68;2.17;;;23.80;99.90;;;;;;5134570;27;20471;-74
2021/12/12 05:18:50;;;;;;;11.23;2.25;;;23.20;99.90;;;;;;5135759;27;20027;-73
2021/12/12 05:21:25;;;;;;;11.60;2.47;;;23.10;99.90;;;;;;5134565;27;20031;-74
2021/12/12 05:23:59;;;;;;;9.10;2.17;;;23.10;99.90;;;;;;5134542;27;20020;-75
2021/12/12 05:26:39;;;;;;;11.15;2.13;;;23.40;99.90;;;;;;5134748;27;20484;-73
2021/12/12 05:29:24;;;;;;;11.13;2.47;;;23.30;99.90;;;;;;5136329;27;20027;-76
2021/12/12 05:31:54;;;;;;;9.93;2.10;;;24.30;99.90;;;;;;5137151;27;20456;-76
2021/12/12 05:34:42;;;;;;;9.37;2.27;;;25.00;99.90;;;;;;5137138;27;20034;-75
2021/12/12 05:37:12;;;;;;;9.25;1.80;;;25.10;99.90;;;;;;5137025;27;20011;-74
2021/12/12 05:39:40;;;;;;;7.90;1.90;;;24.60;99.90;;;;;;5136102;27;20033;-75
2021/12/12 05:42:08;;;;;;;11.23;1.90;;;24.20;99.90;;;;;;5134435;27;20267;-74
2021/12/12 05:44:36;;;;;;;8.80;1.70;;;23.80;99.90;;;;;;5135000;27;20110;-75
2021/12/12 05:47:08;;;;;;;7.90;1.50;;;23.30;99.90;;;;;;5134767;27;20023;-77
2021/12/12 05:49:40;;;;;;;9.63;1.63;;;23.20;99.90;;;;;;5144824;27;20011;-75
2021/12/12 05:52:12;;;;;;;11.30;2.03;;;23.00;99.90;;;;;;5135570;27;20030;-75
2021/12/12 05:54:40;;;;;;;6.68;1.73;;;23.20;99.90;;;;;;5135011;27;20106;-75
2021/12/12 05:57:10;;;;;;;6.68;2.05;;;24.40;99.90;;;;;;5135453;27;20122;-77
2021/12/12 05:59:39;;;;;;;10.90;2.00;;;24.90;99.90;;;;;;5134483;27;20037;-79
2021/12/12 06:02:07;;;;;;;7.80;2.55;;;24.60;99.90;;;;;;5135114;27;20019;-77
2021/12/12 06:04:36;;;;;;;8.55;2.03;;;25.00;99.90;;;;;;5134307;27;20062;-77
2021/12/12 06:07:14;;;;;;;8.48;1.80;;;24.90;99.90;;;;;;5134124;27;20059;-78
2021/12/12 06:09:44;;;;;;;5.93;1.33;;;25.20;99.90;;;;;;5134088;28;20487;-77
2021/12/12 06:12:12;;;;;;;7.20;1.85;;;24.60;99.90;;;;;;5135570;28;20503;-79
2021/12/12 06:14:40;;;;;;;8.75;1.83;;;24.00;99.90;;;;;;5135155;28;20023;-80
2021/12/12 06:17:12;;;;;;;8.23;1.65;;;24.10;99.90;;;;;;5135838;28;20426;-79
2021/12/12 06:19:40;;;;;;;9.05;2.10;;;23.90;99.90;;;;;;5135852;28;20150;-78
2021/12/12 06:22:09;;;;;;;7.82;1.85;;;23.50;99.90;;;;;;5136111;28;20027;-81
2021/12/12 06:24:39;;;;;;;8.07;1.70;;;24.20;99.90;;;;;;5134248;28;20019;-78
2021/12/12 06:27:15;;;;;;;10.05;1.95;;;24.50;99.90;;;;;;5135609;28;20475;-77
2021/12/12 06:29:46;;;;;;;9.00;1.98;;;24.90;99.90;;;;;;5134502;28;20106;-77
2021/12/12 06:32:13;;;;;;;7.07;1.63;;;24.70;99.90;;;;;;5134745;28;20061;-78
2021/12/12 06:34:42;;;;;;;7.05;1.80;;;24.40;99.90;;;;;;5134862;28;20015;-78
2021/12/12 06:37:10;;;;;;;9.52;2.00;;;23.90;99.90;;;;;;5134750;28;20463;-76
2021/12/12 06:39:39;;;;;;;9.50;1.73;;;24.60;99.90;;;;;;5134678;28;20023;-77
2021/12/12 06:42:08;;;;;;;7.68;1.63;;;24.70;99.90;;;;;;5136136;27;20035;-78
2021/12/12 06:44:40;;;;;;;7.25;1.83;;;24.90;99.90;;;;;;5135965;28;20369;-77
2021/12/12 06:47:09;;;;;;;7.57;2.00;;;24.60;99.90;;;;;;5135987;28;20024;-79
2021/12/12 06:49:38;;;;;;;6.50;1.38;;;23.40;99.90;;;;;;5133987;28;20034;-78
2021/12/12 06:52:09;;;;;;;4.75;1.23;;;23.50;99.90;;;;;;5133114;28;20035;-77
2021/12/12 06:54:36;;;;;;;;;;;23.90;99.90;;;;;;5133847;28;20063;-76
2021/12/12 06:57:07;;;;;;;5.15;1.38;;;24.70;99.90;;;;;;5135605;27;19907;-76
2021/12/12 06:59:36;;;;;;;8.90;1.77;;;25.20;98.80;;;;;;5138796;27;20079;-78
2021/12/12 07:02:06;;;;;;;5.83;1.53;;;25.30;99.90;;;;;;5137696;27;20524;-77
2021/12/12 07:04:35;;;;;;;7.50;1.52;;;24.70;99.60;;;;;;5139867;27;20443;-78
2021/12/12 07:07:05;;;;;;;7.78;1.92;;;24.40;99.90;;;;;;5138122;27;20027;-79
2021/12/12 07:09:35;;;;;;;6.45;1.40;;;24.50;99.90;;;;;;5137827;27;20054;-79
2021/12/12 07:12:05;;;;;;;6.53;1.77;;;24.50;99.90;;;;;;5138136;27;20030;-79
2021/12/12 07:14:34;;;;;;;7.22;1.80;;;24.20;99.90;;;;;;5138692;27;20023;-78
2021/12/12 07:17:03;;;;;;;7.55;1.60;;;24.30;99.90;;;;;;5139098;27;20024;-78
2021/12/12 07:19:31;;;;;;;5.70;1.40;;;24.40;99.90;;;;;;5137457;27;20072;-78
2021/12/12 07:21:59;;;;;;;6.13;1.30;;;24.40;99.90;;;;;;5138188;27;20230;-77
2021/12/12 07:24:28;;;;;;;10.35;1.90;;;24.20;99.90;;;;;;5137923;27;20034;-78
2021/12/12 07:26:58;;;;;;;6.30;1.65;;;24.00;99.90;;;;;;5138355;27;20034;-79
2021/12/12 07:29:27;;;;;;;7.37;1.63;;;24.00;99.90;;;;;;5137772;27;20023;-79
2021/12/12 07:31:54;;;;;;;5.13;1.30;;;23.90;99.90;;;;;;5137785;27;20389;-77
2021/12/12 07:34:22;;;;;;;6.00;1.70;;;23.20;99.90;;;;;;5138249;27;20379;-78
2021/12/12 07:36:53;;;;;;;5.20;1.38;;;23.20;99.90;;;;;;5138005;27;20019;-81
2021/12/12 07:39:24;;;;;;;7.50;1.75;;;23.20;99.90;;;;;;5136799;27;20041;-78
2021/12/12 07:41:54;;;;;;;7.90;1.42;;;22.90;99.90;;;;;;5138155;27;20055;-77
2021/12/12 07:44:26;;;;;;;6.25;1.85;;;22.60;99.90;;;;;;5137226;27;20487;-78
2021/12/12 07:46:54;;;;;;;7.22;1.38;;;22.50;99.90;;;;;;5137936;27;20034;-78
2021/12/12 07:49:28;;;;;;;6.68;1.50;;;22.60;99.90;;;;;;5138424;27;20027;-78
2021/12/12 07:51:56;;;;;;;7.93;1.30;;;22.60;99.90;;;;;;5137720;27;20019;-76
2021/12/12 07:54:24;;;;;;;8.60;1.40;;;22.30;99.90;;;;;;5137071;27;20551;-77
2021/12/12 07:56:52;;;;;;;7.80;1.50;;;21.80;99.90;;;;;;5138271;27;20047;-77
2021/12/12 07:59:20;;;;;;;6.55;1.50;;;21.70;99.90;;;;;;5136831;27;20019;-77
2021/12/12 08:01:50;;;;;;;8.25;1.88;;;21.30;99.90;;;;;;5136475;27;20019;-77
2021/12/12 08:04:21;;;;;;;5.03;1.50;;;21.20;99.90;;;;;;5138320;27;20048;-77
2021/12/12 08:06:50;;;;;;;8.98;2.80;;;21.20;99.90;;;;;;5138633;27;20058;-77
2021/12/12 08:09:18;;;;;;;7.90;1.70;;;21.20;99.90;;;;;;5137917;27;20114;-77
2021/12/12 08:11:46;;;;;;;11.35;2.40;;;21.20;99.90;;;;;;5137307;27;20015;-77
2021/12/12 08:14:22;;;;;;;7.90;2.13;;;21.20;99.90;;;;;;5137060;27;20502;-77
2021/12/12 08:16:51;;;;;;;7.43;1.63;;;20.90;99.90;;;;;;5137582;27;20030;-76
2021/12/12 08:19:21;;;;;;;7.25;1.70;;;20.80;99.90;;;;;;5136745;27;20027;-77
2021/12/12 08:21:50;;;;;;;9.15;1.83;;;20.60;99.90;;;;;;5137448;27;20475;-78
2021/12/12 08:24:17;;;;;;;4.40;0.95;;;;;;;;;;5137282;27;20038;-76
2021/12/12 08:26:45;;;;;;;6.25;1.38;;;;;;;;;;5135847;27;20118;-76
2021/12/12 08:29:15;;;;;;;9.20;1.55;;;;;;;;;;5135920;27;20030;-78
2021/12/12 08:31:42;;;;;;;5.00;1.00;;;;;;;;;;5136962;27;20022;-79
2021/12/12 08:34:11;;;;;;;5.95;1.00;;;;;;;;;;5137352;27;20023;-79
2021/12/12 08:36:41;;;;;;;6.43;1.15;;;;;;;;;;5135729;27;20106;-77
2021/12/12 08:39:09;;;;;;;7.47;1.45;;;;;;;;;;5136699;27;20023;-78
2021/12/12 08:41:36;;;;;;;5.60;1.08;;;;;;;;;;5135636;27;20028;-78
2021/12/12 08:44:04;;;;;;;5.18;1.20;;;;;;;;;;5136738;27;20418;-78
2021/12/12 08:46:32;;;;;;;7.45;1.52;;;;;;;;;;5136829;27;20380;-78
2021/12/12 08:49:00;;;;;;;7.45;1.42;;;;;;;;;;5136542;27;20380;-78
2021/12/12 08:51:32;;;;;;;7.90;1.83;;;;;;;;;;5136565;27;20023;-78
2021/12/12 08:54:07;;;;;;;8.65;2.00;;;;;;;;;;5136670;27;20487;-79
2021/12/12 08:56:46;;;;;;;7.57;1.45;;;;;;;;;;5135293;27;20033;-78
2021/12/12 08:59:18;;;;;;;7.68;1.40;;;;;;;;;;5136660;27;20098;-78
2021/12/12 09:01:46;;;;;;;6.65;1.73;;;;;;;;;;5136818;27;20046;-78
2021/12/12 09:04:14;;;;;;;7.05;1.48;;;;;;;;;;5135843;27;20039;-78
2021/12/12 09:07:07;;;;;;;5.25;1.45;;;;;;;;;;5136272;27;20088;-78
2021/12/12 09:09:40;;;;;;;8.00;1.30;;;;;;;;;;5134154;27;20070;-77
2021/12/12 09:12:20;;;;;;;6.93;1.48;;;;;;;;;;5136343;27;20030;-78
2021/12/12 09:14:49;;;;;;;7.00;1.33;;;;;;;;;;5134706;27;20523;-78
2021/12/12 09:17:23;;;;;;;9.50;1.50;;;;;;;;;;5134492;27;20033;-79
2021/12/12 09:19:54;;;;;;;9.27;1.75;;;;;;;;;;5133614;27;20556;-78
2021/12/12 09:22:27;;;;;;;7.63;1.38;;;;;;;;;;5135682;27;20438;-78
2021/12/12 09:24:59;;;;;;;6.50;1.40;;;;;;;;;;5135830;27;20026;-78
2021/12/12 09:27:40;;;;;;;14.75;1.90;;;;;;;;;;5134872;27;20027;-78
2021/12/12 09:30:12;;;;;;;10.23;1.92;;;;;;;;;;5135272;27;20037;-77
2021/12/12 09:32:42;;;;;;;6.57;1.58;;;;;;;;;;5135234;27;20023;-77
2021/12/12 09:35:10;;;;;;;8.75;1.95;;;;;;;;;;5133762;27;20027;-76
2021/12/12 09:37:44;;;;;;;4.47;1.08;;;;;;;;;;5135265;27;20023;-77
2021/12/12 09:40:12;;;;;;;7.45;1.30;;;;;;;;;;5135434;27;20506;-76
2021/12/12 09:42:39;;;;;;;9.93;2.33;;;;;;;;;;5135077;27;20432;-77
2021/12/12 09:45:11;;;;;;;9.32;1.40;;;;;;;;;;5135472;27;20476;-77
2021/12/12 09:53:27;;;;;;;8.52;1.23;;;;;;;;;;5134838;27;20147;-77
2021/12/12 09:56:03;;;;;;;8.77;2.00;;;;;;;;;;5133395;27;20023;-76
2021/12/12 09:58:30;;;;;;;8.68;1.92;;;;;;;;;;5133374;27;20391;-77
2021/12/12 10:01:21;;;;;;;9.57;1.50;;;;;;;;;;5133546;27;20035;-77
2021/12/12 10:03:48;;;;;;;8.30;1.83;;;;;;;;;;5125471;27;20043;-77
2021/12/12 10:06:34;;;;;;;4.75;1.20;;;;;;;;;;5134727;27;20024;-77
2021/12/12 10:09:04;;;;;;;7.93;1.88;;;;;;;;;;5134809;27;20019;-76
2021/12/12 10:11:38;;;;;;;8.75;1.65;;;;;;;;;;5133554;28;20055;-77
2021/12/12 10:14:08;;;;;;;6.82;1.50;;;;;;;;;;5134992;28;20011;-77
2021/12/12 10:16:35;;;;;;;5.18;1.40;;;;;;;;;;5133286;28;20076;-77
2021/12/12 10:19:12;;;;;;;10.27;1.85;;;;;;;;;;5133533;28;20042;-78
2021/12/12 10:21:39;;;;;;;4.78;1.35;;;;;;;;;;5134542;28;20428;-78
2021/12/12 10:24:13;;;;;;;7.20;1.75;;;;;;;;;;5134779;28;20068;-77
2021/12/12 10:26:45;;;;;;;8.88;1.48;;;;;;;;;;5133336;28;20540;-77
2021/12/12 10:29:15;;;;;;;8.07;1.75;;;;;;;;;;5134593;28;20317;-78
2021/12/12 10:31:48;;;;;;;7.22;1.55;;;;;;;;;;5137211;27;20048;-80
2021/12/12 10:34:20;;;;;;;7.75;1.95;;;;;;;;;;5140263;27;20467;-79
2021/12/12 10:36:47;;;;;;;6.18;1.02;;;;;;;;;;5138603;27;20015;-76
2021/12/12 10:39:23;;;;;;;6.28;1.50;;;;;;;;;;5138741;27;20102;-77
2021/12/12 10:42:10;;;;;;;6.93;1.60;;;;;;;;;;5138899;27;20034;-75
2021/12/12 10:44:40;;;;;;;10.65;1.27;;;;;;;;;;5131134;27;20042;-77
2021/12/12 10:47:29;;;;;;;9.27;1.88;;;;;;;;;;5137752;27;20027;-78
2021/12/12 10:50:14;;;;;;;9.43;1.73;;;;;;;;;;5137898;27;20031;-76
2021/12/12 10:52:48;;;;;;;5.75;1.30;;;;;;;;;;5137051;27;20019;-78
2021/12/12 10:55:18;;;;;;;8.93;1.40;;;;;;;;;;5137564;27;20023;-77
2021/12/12 10:57:47;;;;;;;5.85;1.58;;;;;;;;;;5138964;27;20364;-77
2021/12/12 11:00:16;;;;;;;6.45;1.98;;;;;;;;;;5136729;27;20019;-75
2021/12/12 11:02:50;;;;;;;7.25;1.42;;;;;;;;;;5137101;27;20381;-76
2021/12/12 11:05:25;;;;;;;9.63;1.80;;;;;;;;;;5138218;27;20012;-76
2021/12/12 11:07:55;;;;;;;8.55;1.20;;;;;;;;;;5138262;27;20095;-75
2021/12/12 11:10:24;;;;;;;8.32;1.27;;;;;;;;;;5138090;27;20023;-75
2021/12/12 11:13:10;;;;;;;9.38;1.67;;;;;;;;;;5137795;27;20020;-75
2021/12/12 11:15:42;;;;;;;10.00;2.08;;;;;;;;;;5137990;27;20094;-75
2021/12/12 11:18:11;;;;;;;10.35;1.77;;;;;;;;;;5137880;27;20556;-76
2021/12/12 11:20:43;;;;;;;8.77;1.60;;;;;;;;;;5136636;27;20511;-76
2021/12/12 11:23:16;;;;;;;11.25;2.08;;;;;;;;;;5136354;27;20027;-76
2021/12/12 11:25:47;;;;;;;11.65;1.45;;;;;;;;;;5137775;27;20594;-76
2021/12/12 11:28:14;;;;;;;7.70;1.50;;;;;;;;;;5137769;27;20031;-75
2021/12/12 11:30:44;;;;;;;7.53;1.83;;;;;;;;;;5138082;27;20015;-75
2021/12/12 11:33:14;;;;;;;8.68;1.70;;;;;;;;;;5136138;27;20019;-74
2021/12/12 11:35:43;;;;;;;7.28;1.75;;;;;;;;;;5137645;27;20028;-76
2021/12/12 11:38:21;;;;;;;8.43;1.98;;;;;;;;;;5137538;27;20429;-75
2021/12/12 11:41:00;;;;;;;8.23;1.55;;;;;;;;;;5137382;27;20027;-76
2021/12/12 11:43:48;;;;;;;10.20;2.05;;;;;;;;;;5136835;27;20023;-76
2021/12/12 11:46:20;;;;;;;16.38;2.42;;;;;;;;;;5136057;27;20522;-77
2021/12/12 11:48:47;;;;;;;7.82;1.38;;;;;;;;;;5136001;27;20023;-77
2021/12/12 11:51:23;;;;;;;8.50;1.73;;;;;;;;;;5136506;27;20031;-76
2021/12/12 11:53:52;;;;;;;13.02;3.20;;;;;;;;;;5135986;27;20044;-76
2021/12/12 11:56:19;;;;;;;12.18;2.50;;;;;;;;;;5137421;27;20051;-75
2021/12/12 11:59:02;;;;;;;10.05;1.70;;;;;;;;;;5137458;27;20019;-76
2021/12/12 12:01:29;;;;;;;10.60;2.00;;;;;;;;;;5137398;27;20106;-76
2021/12/12 12:04:14;;;;;;;7.70;1.23;;;;;;;;;;5135978;27;20043;-75
2021/12/12 12:06:57;;;;;;;10.13;1.77;;;;;;;;;;5136055;27;20395;-76
2021/12/12 12:09:30;;;;;;;11.70;1.80;;;;;;;;;;5137191;27;20027;-76
2021/12/12 12:11:57;;;;;;;9.20;1.85;;;;;;;;;;5137091;27;20019;-76
2021/12/12 12:14:28;;;;;;;8.35;1.13;;;;;;;;;;5137348;27;20482;-76
2021/12/12 12:17:06;;;;;;;12.43;2.08;;;;;;;;;;5137474;27;20384;-76
2021/12/12 12:19:53;;;;;;;6.97;1.65;;;;;;;;;;5136985;27;20023;-76
2021/12/12 12:22:26;;;;;;;11.32;2.25;;;;;;;;;;5135611;27;20114;-76
2021/12/12 12:24:59;;;;;;;12.10;2.55;;;;;;;;;;5137664;27;20053;-76
2021/12/12 12:27:31;;;;;;;13.05;2.70;;;;;;;;;;5136121;27;20114;-76
2021/12/12 12:30:16;;;;;;;12.27;2.20;;;;;;;;;;5137539;27;20030;-76
2021/12/12 12:33:01;;;;;;;12.07;2.00;;;;;;;;;;5137398;27;20125;-76
2021/12/12 12:35:46;;;;;;;12.55;1.67;;;;;;;;;;5136635;27;20027;-76
2021/12/12 12:38:31;;;;;;;10.77;2.35;;;;;;;;;;5137051;27;20034;-75
2021/12/12 12:41:17;;;;;;;9.70;2.20;;;;;;;;;;5135391;27;20051;-75
2021/12/12 12:44:02;;;;;;;10.88;2.17;;;;;;;;;;5136634;27;20023;-76
2021/12/12 12:46:47;;;;;;;15.00;2.00;;;;;;;;;;5135011;27;20034;-76
2021/12/12 12:49:33;;;;;;;10.10;1.65;;;;;;;;;;5136790;27;20035;-75
2021/12/12 12:52:30;;;;;;;11.88;2.40;;;;;;;;;;5136623;27;20022;-75
2021/12/12 12:55:15;;;;;;;10.18;2.25;;;;;;;;;;5135280;27;20026;-76
2021/12/12 12:57:43;;;;;;;15.32;3.08;;;;;;;;;;5136718;27;20015;-77
2021/12/12 13:00:15;;;;;;;12.57;1.98;;;;;;;;;;5134704;27;20487;-76
2021/12/12 13:02:45;;;;;;;8.57;1.75;;;;;;;;;;5136044;27;20167;-76
2021/12/12 13:05:16;;;;;;;8.15;1.85;;;;;;;;;;5135964;27;20031;-76
2021/12/12 13:07:43;;;;;;;12.82;1.98;;;;;;;;;;5136288;27;20071;-75
2021/12/12 13:10:16;;;;;;;11.60;1.98;;;;;;;;;;5136030;27;20106;-75
2021/12/12 13:12:46;;;;;;;10.73;2.08;;;;;;;;;;5134795;27;20020;-76
2021/12/12 13:15:30;;;;;;;13.30;1.98;;;;;;;;;;5135879;27;20474;-75
2021/12/12 13:18:05;;;;;;;11.65;2.05;;;;;;;;;;5136471;27;20047;-76
2021/12/12 13:20:52;;;;;;;10.40;1.98;;;;;;;;;;5134419;27;20030;-75
2021/12/12 13:23:31;;;;;;;12.93;2.00;;;;;;;;;;5134335;27;20514;-76
2021/12/12 13:26:10;;;;;;;10.85;2.30;;;;;;;;;;5135952;27;20398;-76
2021/12/12 13:28:56;;;;;;;11.32;2.58;;;;;;;;;;5134516;27;20470;-76
2021/12/12 13:31:35;;;;;;;11.52;2.17;;;;;;;;;;5136387;27;20019;-76
2021/12/12 13:34:21;;;;;;;9.07;2.47;;;;;;;;;;5135862;27;20083;-76
2021/12/12 13:37:10;;;;;;;10.10;2.28;;;;;;;;;;5134804;27;20030;-76
2021/12/12 13:39:40;;;;;;;8.55;1.83;;;;;;;;;;5136151;27;20019;-76
2021/12/12 13:42:46;;;;;;;10.73;2.40;;;17.80;99.90;;;;;;5135970;27;20031;-76
2021/12/12 13:45:35;;;;;;;8.52;1.67;;;17.80;99.90;;;;;;5114333;27;20693;-76
2021/12/12 13:48:02;;;;;;;8.90;1.98;;;;;;;;;;5135552;27;20388;-76
2021/12/12 13:50:32;;;;;;;10.00;2.17;;;;;;;;;;5133982;27;20020;-76
2021/12/12 13:52:59;;;;;;;9.93;2.30;;;;;;;;;;5135794;27;20026;-76
2021/12/12 13:55:42;;;;;;;10.48;2.15;;;17.70;99.90;;;;;;5133744;27;20042;-76
2021/12/12 13:58:26;;;;;;;10.75;2.20;;;17.80;99.90;;;;;;5133783;27;20114;-76
2021/12/12 14:01:08;;;;;;;8.55;2.08;;;17.80;99.90;;;;;;5134011;27;20068;-76
2021/12/12 14:03:59;;;;;;;12.52;1.98;;;17.80;99.90;;;;;;5134973;27;20546;-76
2021/12/12 14:06:27;;;;;;;14.30;1.83;;;17.70;99.90;;;;;;5133814;27;20019;-76
2021/12/12 14:09:02;;;;;;;10.20;1.80;;;17.70;99.90;;;;;;5133867;27;20027;-76
2021/12/12 14:11:32;;;;;;;10.00;1.90;;;17.80;99.90;;;;;;5134355;27;20027;-76
2021/12/12 14:14:05;;;;;;;;;;;17.70;99.90;;;;;;5135890;28;20022;-76
2021/12/12 14:16:41;;;;;;;16.63;2.42;;;17.70;99.90;;;;;;5135400;28;19929;-76
2021/12/12 14:19:11;;;;;;;13.48;2.20;;;17.70;99.90;;;;;;5133727;28;20054;-76